Time;durP1;ratioP1;P1;durP2;ratioP2;P2;SDS_P1;SDS_P2;PMS_P1;PMS_P2;Temp;Humidity;BMP_temperature;BMP_pressure;BME280_temperature;BME280_humidity;BME280_pressure;Samples;Min_cycle;Max_cycle;Signal;HPM_P1;HPM_P2
2022/07/18 00:00:46;;;;;;;10.35;3.15;;;;;;;19.01;69.66;100728.31;5071680;28;20032;-83
2022/07/18 00:03:11;;;;;;;7.72;2.97;;;;;;;19.02;69.48;100725.44;5086026;28;20028;-82
2022/07/18 00:05:37;;;;;;;6.78;2.88;;;;;;;19.01;69.65;100728.31;5105602;28;20042;-83
2022/07/18 00:08:03;;;;;;;9.20;2.85;;;;;;;18.99;69.52;100723.16;5088803;28;20103;-83
2022/07/18 00:10:29;;;;;;;8.00;3.08;;;;;;;18.96;69.50;100726.22;5089235;28;20403;-83
2022/07/18 00:12:55;;;;;;;10.60;3.33;;;;;;;18.94;69.46;100728.25;5088731;28;20043;-83
2022/07/18 00:15:21;;;;;;;8.35;3.63;;;;;;;18.99;69.28;100725.84;5087915;28;20031;-83
2022/07/18 00:17:47;;;;;;;8.85;3.28;;;;;;;19.00;69.31;100718.63;5090366;28;20028;-83
2022/07/18 00:20:13;;;;;;;8.23;2.65;;;;;;;19.02;69.37;100722.75;5071692;28;20416;-82
2022/07/18 00:22:39;;;;;;;9.90;2.55;;;;;;;18.96;69.18;100721.69;5090642;28;20044;-83
2022/07/18 00:25:05;;;;;;;6.78;2.60;;;;;;;18.84;69.34;100720.56;5071364;28;20071;-83
2022/07/18 00:27:32;;;;;;;9.10;2.72;;;;;;;18.78;69.30;100714.13;5091610;28;20031;-83
2022/07/18 00:29:57;;;;;;;9.40;3.10;;;;;;;18.72;69.43;100718.41;5073848;28;20032;-83
2022/07/18 00:32:23;;;;;;;7.40;2.80;;;;;;;18.67;69.42;100718.13;5090563;28;20039;-83
2022/07/18 00:34:49;;;;;;;6.13;3.03;;;;;;;18.60;69.27;100715.38;5054790;28;20040;-83
2022/07/18 00:37:15;;;;;;;8.05;2.45;;;;;;;18.55;69.44;100717.00;5072786;28;20047;-83
2022/07/18 00:39:41;;;;;;;7.22;2.92;;;;;;;18.46;69.39;100722.47;5089732;28;20040;-83
2022/07/18 00:42:06;;;;;;;10.20;2.83;;;;;;;18.38;69.46;100711.88;5092364;28;20462;-83
2022/07/18 00:44:32;;;;;;;15.05;2.70;;;;;;;18.33;69.68;100708.97;5089532;28;20043;-83
2022/07/18 00:47:01;;;;;;;13.10;3.10;;;;;;;18.29;69.66;100707.66;5082105;28;20053;-83
2022/07/18 00:49:27;;;;;;;10.07;2.88;;;;;;;18.23;69.97;100711.94;5084378;28;20395;-83
2022/07/18 00:51:54;;;;;;;9.45;3.00;;;;;;;18.23;69.88;100707.41;5075880;28;20445;-83
2022/07/18 00:54:19;;;;;;;11.15;3.05;;;;;;;18.21;70.13;100711.28;5087079;28;20028;-78
2022/07/18 00:56:48;;;;;;;10.38;2.78;;;;;;;18.18;69.92;100712.50;5057078;28;20042;-77
2022/07/18 00:59:14;;;;;;;8.73;2.80;;;;;;;18.13;70.07;100714.06;5086012;28;20531;-83
2022/07/18 01:01:43;;;;;;;5.25;2.63;;;;;;;18.12;70.25;100707.06;5103817;28;20050;-83
2022/07/18 01:04:18;;;;;;;13.73;3.25;;;;;;;18.14;70.08;100703.19;5088120;28;20034;-83
2022/07/18 01:06:46;;;;;;;9.43;2.88;;;;;;;18.15;70.25;100704.00;5104489;28;20111;-83
2022/07/18 01:09:12;;;;;;;6.00;2.88;;;;;;;18.17;70.12;100705.47;5047856;28;20483;-83
2022/07/18 01:11:38;;;;;;;9.68;3.20;;;;;;;18.14;70.14;100703.19;5089630;28;21226;-83
2022/07/18 01:14:06;;;;;;;12.25;3.30;;;;;;;18.14;70.08;100710.41;5086448;28;20024;-82
2022/07/18 01:16:32;;;;;;;5.45;2.65;;;;;;;18.12;70.38;100704.41;5088622;28;20527;-83
2022/07/18 01:18:58;;;;;;;7.45;2.63;;;;;;;18.02;70.54;100694.78;5064852;28;20040;-83
2022/07/18 01:21:25;;;;;;;5.45;2.17;;;;;;;17.93;70.64;100694.06;5079800;28;20039;-83
2022/07/18 01:23:50;;;;;;;17.35;4.50;;;;;;;17.86;70.66;100693.16;5057368;28;20078;-83
2022/07/18 01:26:17;;;;;;;8.30;3.30;;;;;;;17.70;71.28;100691.50;5082594;28;20028;-83
2022/07/18 01:28:44;;;;;;;12.95;3.90;;;;;;;17.58;71.82;100693.84;5074261;28;20031;-83
2022/07/18 01:31:10;;;;;;;6.57;2.75;;;;;;;17.47;72.18;100687.94;5088808;28;20032;-83
2022/07/18 01:33:36;;;;;;;7.95;2.60;;;;;;;17.31;72.80;100680.91;5086809;28;20044;-78
2022/07/18 01:36:04;;;;;;;5.90;2.88;;;;;;;17.22;73.13;100679.34;5088273;28;20034;-77
2022/07/18 01:38:31;;;;;;;8.10;2.92;;;;;;;17.15;73.53;100678.44;5105768;27;20064;-83
2022/07/18 01:40:58;;;;;;;7.03;2.90;;;;;;;17.12;73.72;100679.59;5089964;28;20541;-83
2022/07/18 01:43:25;;;;;;;4.90;2.75;;;;;;;17.07;73.99;100672.09;5087563;28;20040;-84
2022/07/18 01:45:52;;;;;;;8.93;2.90;;;;;;;17.06;74.24;100674.97;5091547;28;20043;-83
2022/07/18 01:48:19;;;;;;;10.90;3.40;;;;;;;17.10;74.12;100662.94;5087194;28;20391;-85
2022/07/18 01:50:46;;;;;;;6.63;2.67;;;;;;;17.17;73.98;100676.41;5090815;28;20036;-83
2022/07/18 01:53:12;;;;;;;8.85;3.22;;;;;;;17.20;73.75;100682.19;5071827;28;20050;-83
2022/07/18 01:55:38;;;;;;;7.80;2.80;;;;;;;17.22;73.53;100674.84;5073416;28;20036;-83
2022/07/18 01:58:04;;;;;;;7.32;2.70;;;;;;;17.26;73.68;100669.13;5087637;28;20035;-82
2022/07/18 02:00:30;;;;;;;8.27;3.63;;;;;;;17.26;73.46;100675.31;5090387;28;20028;-83
2022/07/18 02:02:56;;;;;;;9.45;3.25;;;;;;;17.27;73.57;100676.13;5055352;28;20399;-83
2022/07/18 02:05:22;;;;;;;10.63;3.38;;;;;;;17.30;73.66;100670.41;5074386;28;20024;-83
2022/07/18 02:07:48;;;;;;;9.60;3.90;;;;;;;17.33;73.77;100675.38;5073838;28;20028;-83
2022/07/18 02:10:17;;;;;;;10.32;3.72;;;;;;;17.40;74.11;100670.16;5090446;28;20043;-83
2022/07/18 02:12:43;;;;;;;13.10;4.10;;;;;;;17.43;74.24;100670.63;5073466;28;20067;-83
2022/07/18 02:15:11;;;;;;;8.90;4.22;;;;;;;17.46;73.97;100666.72;5092469;28;20077;-83
2022/07/18 02:17:37;;;;;;;11.55;3.88;;;;;;;17.52;73.98;100671.34;5091809;28;20106;-83
2022/07/18 02:20:06;;;;;;;9.95;3.50;;;;;;;17.51;74.17;100667.00;5074370;28;20506;-77
2022/07/18 02:22:32;;;;;;;11.88;3.33;;;;;;;17.48;74.02;100675.41;5089261;28;20545;-77
2022/07/18 02:24:58;;;;;;;10.23;3.70;;;;;;;17.46;74.15;100672.91;5090274;28;20067;-83
2022/07/18 02:27:24;;;;;;;7.63;3.15;;;;;;;17.44;74.34;100676.78;5090466;28;20032;-83
2022/07/18 02:29:50;;;;;;;8.43;3.17;;;;;;;17.40;74.38;100670.16;5093095;28;20419;-83
2022/07/18 02:32:16;;;;;;;11.65;3.35;;;;;;;17.33;73.92;100668.22;5093007;28;20540;-83
2022/07/18 02:34:42;;;;;;;9.27;3.38;;;;;;;17.27;73.80;100662.75;5091233;28;20233;-83
2022/07/18 02:37:08;;;;;;;10.80;3.28;;;;;;;17.21;73.53;100667.00;5092839;28;20028;-83
2022/07/18 02:39:34;;;;;;;5.13;2.67;;;;;;;17.15;73.23;100657.91;5091506;28;20106;-83
2022/07/18 02:42:00;;;;;;;3.55;2.42;;;;;;;17.13;73.16;100659.06;5074129;28;20039;-82
2022/07/18 02:44:26;;;;;;;7.18;2.67;;;;;;;17.06;72.95;100661.59;5108291;28;20020;-83
2022/07/18 02:46:52;;;;;;;5.75;2.85;;;;;;;17.01;72.81;100654.13;5090764;28;20384;-83
2022/07/18 02:49:27;;;;;;;4.05;2.72;;;;;;;17.01;72.82;100653.34;5090043;28;20110;-83
2022/07/18 02:52:06;;;;;;;7.05;2.72;;;;;;;16.99;72.50;100648.97;5073550;28;20046;-83
2022/07/18 02:54:34;;;;;;;5.47;2.70;;;;;;;16.98;72.37;100643.81;5089024;28;20028;-83
2022/07/18 02:57:00;;;;;;;4.68;2.40;;;;;;;16.97;72.48;100645.69;5089358;28;20035;-83
2022/07/18 02:59:26;;;;;;;5.03;2.30;;;;;;;16.96;72.23;100637.88;5085492;28;20039;-83
2022/07/18 03:01:54;;;;;;;5.60;2.78;;;;;;;16.96;72.07;100637.88;5084319;28;20028;-83
2022/07/18 03:04:20;;;;;;;5.38;3.03;;;;;;;16.93;72.08;100643.56;5073245;28;20036;-77
2022/07/18 03:06:47;;;;;;;10.85;3.72;;;;;;;16.85;72.23;100639.13;5091413;28;20043;-77
2022/07/18 03:09:13;;;;;;;5.10;2.63;;;;;;;16.74;72.44;100635.88;5106326;28;20031;-83
2022/07/18 03:11:39;;;;;;;4.95;2.83;;;;;;;16.70;72.96;100644.44;5056923;28;20062;-83
2022/07/18 03:14:05;;;;;;;6.40;2.72;;;;;;;16.66;72.98;100643.94;5089579;28;20024;-83
2022/07/18 03:16:31;;;;;;;8.88;3.13;;;;;;;16.59;73.01;100638.53;5086320;28;20488;-83
2022/07/18 03:18:57;;;;;;;2.83;2.10;;;;;;;16.50;73.13;100639.56;5088463;28;20058;-77
2022/07/18 03:21:23;;;;;;;8.30;3.47;;;;;;;16.42;73.23;100635.13;5073131;28;20048;-77
2022/07/18 03:23:49;;;;;;;8.07;2.72;;;;;;;16.45;73.44;100634.78;5086847;28;20107;-77
2022/07/18 03:26:15;;;;;;;8.68;3.05;;;;;;;16.46;73.33;100632.94;5088176;28;20043;-77
2022/07/18 03:28:41;;;;;;;5.93;3.08;;;;;;;16.43;73.11;100630.63;5054190;28;20028;-83
2022/07/18 03:31:07;;;;;;;4.72;2.92;;;;;;;16.44;73.31;100634.94;5072070;28;20058;-83
2022/07/18 03:33:33;;;;;;;9.35;3.53;;;;;;;16.44;73.47;100632.28;5087883;28;20076;-83
2022/07/18 03:35:59;;;;;;;5.65;2.92;;;;;;;16.42;73.64;100627.13;5088901;28;20059;-83
2022/07/18 03:38:24;;;;;;;7.53;2.78;;;;;;;16.38;73.70;100636.50;5055549;28;20028;-83
2022/07/18 03:40:50;;;;;;;4.88;3.00;;;;;;;16.31;73.68;100623.03;5105667;28;20032;-83
2022/07/18 03:43:16;;;;;;;8.07;3.55;;;;;;;16.28;74.00;100620.72;5087837;28;20036;-83
2022/07/18 03:45:42;;;;;;;9.88;3.40;;;;;;;16.26;74.14;100617.41;5088668;28;20020;-83
2022/07/18 03:48:08;;;;;;;6.82;2.83;;;;;;;16.27;74.13;100620.91;5073278;28;20031;-83
2022/07/18 03:50:34;;;;;;;3.88;2.78;;;;;;;16.25;74.00;100615.75;5072210;28;20036;-83
2022/07/18 03:53:00;;;;;;;4.97;2.17;;;;;;;16.21;74.18;100607.28;5088417;28;20278;-83
2022/07/18 03:55:26;;;;;;;2.00;1.80;;;;;;;16.19;74.25;100611.97;5085221;28;20032;-83
2022/07/18 03:57:52;;;;;;;5.13;1.90;;;;;;;16.14;74.36;100606.34;5071541;28;20036;-83
2022/07/18 04:00:18;;;;;;;1.85;1.40;;;;;;;16.08;74.30;100612.38;5088947;28;20036;-85
2022/07/18 04:02:46;;;;;;;7.65;2.75;;;;;;;16.02;74.53;100597.94;5088021;28;20066;-83
2022/07/18 04:05:13;;;;;;;4.25;1.50;;;;;;;15.97;74.70;100606.44;5084594;28;20106;-83
2022/07/18 04:07:39;;;;;;;7.05;2.08;;;;;;;15.93;74.78;100602.44;5086658;28;20715;-83
2022/07/18 04:10:07;;;;;;;3.70;2.28;;;;;;;15.93;74.86;100591.78;5068322;28;20031;-83
2022/07/18 04:12:33;;;;;;;5.18;2.83;;;;;;;15.97;74.57;100600.25;5070429;28;20070;-84
2022/07/18 04:14:58;;;;;;;4.68;3.13;;;;;;;15.93;74.63;100593.59;5089389;28;20072;-84
2022/07/18 04:17:24;;;;;;;4.55;2.80;;;;;;;15.91;74.81;100584.97;5073555;28;20028;-83
2022/07/18 04:19:51;;;;;;;5.63;2.90;;;;;;;15.86;74.99;100593.50;5090522;28;20455;-83
2022/07/18 04:22:17;;;;;;;4.75;2.75;;;;;;;15.84;75.16;100592.81;5086469;28;20515;-83
2022/07/18 04:24:43;;;;;;;3.58;1.90;;;;;;;15.77;75.08;100586.56;5085593;28;20056;-83
2022/07/18 04:27:09;;;;;;;4.85;2.28;;;;;;;15.71;75.22;100577.41;5081617;28;20102;-83
2022/07/18 04:29:37;;;;;;;2.53;1.70;;;;;;;15.68;75.56;100575.09;5080041;28;20040;-83
2022/07/18 04:32:03;;;;;;;3.90;2.22;;;;;;;15.62;75.52;100580.09;5081124;28;20052;-83
2022/07/18 04:34:29;;;;;;;4.03;1.88;;;;;;;15.53;75.84;100585.69;5073602;28;20055;-83
2022/07/18 04:36:55;;;;;;;4.38;1.92;;;;;;;15.43;75.90;100586.69;5066540;28;20047;-83
2022/07/18 04:39:21;;;;;;;3.50;1.75;;;;;;;15.40;76.27;100579.03;5103658;28;20036;-77
2022/07/18 04:41:47;;;;;;;4.72;2.15;;;;;;;15.40;76.42;100586.22;5081762;28;20028;-77
2022/07/18 04:44:13;;;;;;;3.25;2.15;;;;;;;15.45;76.32;100581.22;5083565;28;20024;-82
2022/07/18 04:46:39;;;;;;;2.80;2.17;;;;;;;15.49;75.92;100580.69;5092775;28;20507;-83
2022/07/18 04:49:05;;;;;;;7.93;2.35;;;;;;;15.58;75.95;100584.13;5075358;28;20028;-82
2022/07/18 04:51:32;;;;;;;4.20;2.20;;;;;;;15.56;75.74;100574.66;5070768;28;20425;-83
2022/07/18 04:53:58;;;;;;;8.93;2.60;;;;;;;15.55;75.80;100575.66;5093604;28;20428;-83
2022/07/18 04:56:24;;;;;;;2.97;1.70;;;;;;;15.47;76.05;100577.38;5091855;28;20074;-83
2022/07/18 04:58:50;;;;;;;9.45;1.95;;;;;;;15.37;76.40;100571.41;5106646;28;20036;-83
2022/07/18 05:01:16;;;;;;;3.22;1.60;;;;;;;15.36;76.72;100570.59;5073813;28;20396;-82
2022/07/18 05:03:41;;;;;;;4.22;2.20;;;;;;;15.44;76.74;100574.22;5075462;28;20036;-82
2022/07/18 05:06:07;;;;;;;8.95;2.47;;;;;;;15.54;76.54;100568.69;5092618;28;20029;-82
2022/07/18 05:08:33;;;;;;;5.30;2.85;;;;;;;15.55;76.46;100573.00;5088231;28;20499;-83
2022/07/18 05:10:59;;;;;;;6.60;2.90;;;;;;;15.62;76.72;100568.66;5088832;28;20516;-82
2022/07/18 05:13:24;;;;;;;5.95;2.80;;;;;;;15.63;76.84;100576.47;5086439;28;20044;-78
2022/07/18 05:15:51;;;;;;;5.30;3.35;;;;;;;15.68;76.93;100577.75;5070867;28;20474;-77
2022/07/18 05:18:17;;;;;;;4.65;2.47;;;;;;;15.63;77.01;100578.28;5076735;28;20028;-77
2022/07/18 05:20:43;;;;;;;4.30;2.97;;;;;;;15.56;77.23;100582.66;5060605;28;20035;-83
2022/07/18 05:23:09;;;;;;;6.28;3.63;;;;;;;15.58;77.84;100580.63;5076408;28;20032;-83
2022/07/18 05:25:35;;;;;;;7.53;3.60;;;;;;;15.59;77.91;100572.47;5072622;28;20042;-77
2022/07/18 05:28:01;;;;;;;7.05;3.22;;;;;;;15.67;78.15;100574.25;5093493;28;20383;-77
2022/07/18 05:30:27;;;;;;;6.22;3.28;;;;;;;15.75;77.95;100568.06;5094509;28;20045;-83
2022/07/18 05:32:53;;;;;;;4.68;3.17;;;;;;;15.81;77.89;100567.38;5072209;28;20102;-82
2022/07/18 05:35:19;;;;;;;5.45;3.22;;;;;;;15.89;77.87;100569.16;5087916;28;20028;-77
2022/07/18 05:37:45;;;;;;;5.70;2.72;;;;;;;15.93;77.70;100572.28;5083146;28;20040;-77
2022/07/18 05:40:13;;;;;;;7.10;3.00;;;;;;;15.96;77.70;100566.59;5086611;28;20046;-77
2022/07/18 05:42:39;;;;;;;5.57;3.38;;;;;;;15.96;77.70;100563.91;5089368;28;20068;-77
2022/07/18 05:45:07;;;;;;;4.40;2.65;;;;;;;15.96;77.82;100559.44;5098773;28;20055;-82
2022/07/18 05:47:33;;;;;;;5.40;3.10;;;;;;;15.97;77.63;100561.09;5085598;28;20040;-83
2022/07/18 05:49:59;;;;;;;5.53;2.75;;;;;;;16.03;77.88;100564.09;5089959;28;20044;-83
2022/07/18 05:52:25;;;;;;;4.20;2.35;;;;;;;16.10;77.82;100563.19;5088376;28;20024;-82
2022/07/18 05:54:50;;;;;;;6.60;3.38;;;;;;;16.12;77.58;100565.69;5092152;28;20472;-83
2022/07/18 05:57:16;;;;;;;9.23;3.70;;;;;;;16.15;77.62;100573.31;5091171;28;20111;-83
2022/07/18 05:59:42;;;;;;;6.95;3.40;;;;;;;16.15;78.03;100573.31;5065331;28;20038;-83
2022/07/18 06:02:08;;;;;;;8.82;3.08;;;;;;;16.18;78.03;100570.28;5076686;28;20032;-83
2022/07/18 06:04:34;;;;;;;7.55;3.38;;;;;;;16.18;78.42;100572.16;5067990;28;20032;-83
2022/07/18 06:07:00;;;;;;;11.18;3.80;;;;;;;16.16;78.50;100568.81;5074525;28;20035;-83
2022/07/18 06:09:30;;;;;;;5.75;3.47;;;;;;;16.15;79.04;100567.97;5089760;28;20036;-83
2022/07/18 06:11:58;;;;;;;9.23;3.75;;;;;;;16.17;79.08;100571.31;5089077;28;20071;-83
2022/07/18 06:14:25;;;;;;;6.50;3.15;;;;;;;16.23;79.56;100577.75;5084228;28;20036;-83
2022/07/18 06:16:51;;;;;;;7.30;3.10;;;;;;;16.32;79.51;100574.03;5090967;28;20040;-83
2022/07/18 06:19:17;;;;;;;13.27;3.58;;;;;;;16.46;79.48;100567.09;5078007;28;20032;-83
2022/07/18 06:21:43;;;;;;;5.68;2.80;;;;;;;16.51;79.42;100574.53;5073642;28;20040;-82
2022/07/18 06:24:09;;;;;;;11.35;2.97;;;;;;;16.61;79.61;100571.63;5087869;28;20067;-83
2022/07/18 06:26:35;;;;;;;12.40;4.88;;;;;;;16.74;79.64;100563.81;5073602;28;20400;-83
2022/07/18 06:29:00;;;;;;;7.65;3.38;;;;;;;16.84;79.80;100579.56;5086743;28;20047;-82
2022/07/18 06:31:26;;;;;;;8.30;3.15;;;;;;;16.91;79.90;100573.50;5071947;28;20039;-83
2022/07/18 06:33:52;;;;;;;9.07;3.40;;;;;;;16.97;80.13;100570.94;5087200;28;20044;-83
2022/07/18 06:36:18;;;;;;;7.07;3.40;;;;;;;17.05;80.29;100571.84;5084773;28;20036;-83
2022/07/18 06:38:44;;;;;;;9.07;3.65;;;;;;;17.13;80.70;100562.94;5090114;28;20039;-83
2022/07/18 06:41:10;;;;;;;12.90;3.75;;;;;;;17.15;81.12;100561.75;5082963;28;20074;-83
2022/07/18 06:43:38;;;;;;;11.68;4.32;;;;;;;17.17;81.72;100561.56;5087336;28;20043;-83
2022/07/18 06:46:05;;;;;;;8.38;3.80;;;;;;;17.17;82.14;100562.38;5088480;28;20067;-83
2022/07/18 06:48:33;;;;;;;6.85;3.55;;;;;;;17.15;82.75;100558.25;5084638;28;20425;-83
2022/07/18 06:51:01;;;;;;;11.93;4.80;;;;;;;17.18;82.99;100561.38;5074818;28;20048;-83
2022/07/18 06:53:28;;;;;;;10.32;3.78;;;;;;;17.20;83.36;100558.53;5092266;28;20063;-82
2022/07/18 06:55:55;;;;;;;6.80;3.60;;;;;;;17.33;83.16;100556.00;5091623;28;20023;-83
2022/07/18 06:58:21;;;;;;;5.60;3.53;;;;;;;17.44;82.74;100560.03;5072583;28;20032;-82
2022/07/18 07:00:46;;;;;;;6.85;3.17;;;;;;;17.58;82.28;100552.19;5089767;28;20556;-83
2022/07/18 07:03:12;;;;;;;12.85;3.60;;;;;;;17.65;82.28;100544.22;5071218;28;20038;-83
2022/07/18 07:05:38;;;;;;;6.85;3.60;;;;;;;17.75;82.11;100546.59;5088927;28;20035;-83
2022/07/18 07:08:04;;;;;;;13.43;3.72;;;;;;;17.88;81.74;100541.41;5089026;28;20477;-83
2022/07/18 07:10:30;;;;;;;6.35;3.72;;;;;;;18.02;81.24;100539.69;5087522;28;20075;-83
2022/07/18 07:12:56;;;;;;;7.05;3.05;;;;;;;18.13;81.03;100545.53;5088860;28;20126;-83
2022/07/18 07:15:23;;;;;;;6.00;3.05;;;;;;;18.33;80.98;100540.38;5079542;28;20020;-83
2022/07/18 07:17:50;;;;;;;5.63;3.25;;;;;;;18.55;80.96;100534.97;5088229;28;20529;-83
2022/07/18 07:20:21;;;;;;;7.78;3.20;;;;;;;18.82;80.60;100533.31;5089974;28;20036;-77
2022/07/18 07:22:50;;;;;;;8.05;3.05;;;;;;;19.18;80.02;100535.97;5090592;28;20096;-77
2022/07/18 07:25:17;;;;;;;5.68;3.00;;;;;;;19.52;79.29;100536.09;5087713;28;20036;-82
2022/07/18 07:27:43;;;;;;;7.70;2.72;;;;;;;19.87;78.35;100527.94;5092261;28;20019;-82
2022/07/18 07:30:11;;;;;;;13.60;2.80;;;;;;;20.23;76.99;100527.78;5093281;28;20111;-77
2022/07/18 07:32:39;;;;;;;14.38;3.15;;;;;;;20.55;76.08;100525.25;5092615;28;20082;-77
2022/07/18 07:35:06;;;;;;;16.02;3.00;;;;;;;20.86;75.00;100523.75;5092599;28;20044;-82
2022/07/18 07:37:33;;;;;;;9.02;3.63;;;;;;;21.12;73.86;100523.91;5083612;28;20127;-82
2022/07/18 07:39:59;;;;;;;9.65;3.45;;;;;;;21.37;73.33;100521.31;5087622;28;20476;-82
2022/07/18 07:42:25;;;;;;;16.58;3.28;;;;;;;21.53;72.60;100527.22;5091714;28;20502;-82
2022/07/18 07:44:51;;;;;;;9.88;2.90;;;;;;;21.66;71.52;100526.31;5085277;28;20403;-82
2022/07/18 07:47:17;;;;;;;8.68;2.47;;;;;;;21.80;70.69;100522.50;5086533;28;20024;-82
2022/07/18 07:49:43;;;;;;;11.23;2.90;;;;;;;21.94;69.86;100519.75;5085277;28;20028;-77
2022/07/18 07:52:11;;;;;;;13.23;2.85;;;;;;;22.03;68.93;100510.34;5080794;28;20044;-77
2022/07/18 07:54:37;;;;;;;7.95;2.83;;;;;;;22.16;68.67;100513.97;5090106;28;20120;-82
2022/07/18 07:57:03;;;;;;;7.97;2.50;;;;;;;22.21;68.25;100506.06;5087349;28;20448;-82
2022/07/18 07:59:31;;;;;;;13.95;2.40;;;;;;;22.26;67.98;100505.41;5085586;28;20059;-82
2022/07/18 08:01:58;;;;;;;5.50;2.30;;;;;;;22.34;67.61;100504.28;5089824;28;20036;-82
2022/07/18 08:04:25;;;;;;;9.20;2.42;;;;;;;22.31;67.67;100505.56;5088501;28;20028;-82
2022/07/18 08:06:51;;;;;;;6.03;2.35;;;;;;;22.27;67.69;100504.34;5088188;28;20054;-82
2022/07/18 08:09:17;;;;;;;6.35;2.72;;;;;;;22.21;67.14;100499.84;5085126;28;20020;-77
2022/07/18 08:11:43;;;;;;;6.82;2.63;;;;;;;22.09;67.37;100494.38;5090401;28;20032;-77
2022/07/18 08:14:08;;;;;;;9.30;2.58;;;;;;;22.03;67.60;100499.59;5088229;28;20101;-82
2022/07/18 08:16:34;;;;;;;5.78;2.17;;;;;;;22.10;67.70;100496.00;5090042;28;20448;-82
2022/07/18 08:19:00;;;;;;;10.93;2.28;;;;;;;22.15;67.35;100488.09;5084104;28;20497;-76
2022/07/18 08:21:26;;;;;;;6.75;2.15;;;;;;;22.18;66.67;100485.81;5087363;28;20032;-77
2022/07/18 08:23:52;;;;;;;5.55;1.75;;;;;;;22.12;66.67;100491.25;5088216;28;20028;-82
2022/07/18 08:26:17;;;;;;;5.60;1.90;;;;;;;22.18;66.74;100484.97;5081537;28;20028;-82
2022/07/18 08:28:43;;;;;;;6.32;2.22;;;;;;;22.29;66.47;100502.25;5088213;28;20056;-82
2022/07/18 08:31:09;;;;;;;6.93;2.08;;;;;;;22.39;66.51;100491.00;5087883;28;20090;-82
2022/07/18 08:33:35;;;;;;;8.35;2.92;;;;;;;22.50;66.15;100487.56;5086872;28;20044;-82
2022/07/18 08:36:01;;;;;;;11.35;3.75;;;;;;;22.50;66.07;100484.88;5078039;28;20081;-81
2022/07/18 08:38:27;;;;;;;7.47;2.60;;;;;;;22.54;66.26;100479.84;5095163;28;20044;-82
2022/07/18 08:40:54;;;;;;;10.57;1.90;;;;;;;22.61;65.50;100480.66;5085131;28;20475;-82
2022/07/18 08:43:20;;;;;;;4.50;2.05;;;;;;;22.70;65.32;100480.31;5089181;28;20028;-81
2022/07/18 08:45:47;;;;;;;9.45;2.30;;;;;;;22.79;65.03;100481.69;5082882;28;20028;-82
2022/07/18 08:48:14;;;;;;;3.88;1.70;;;;;;;22.89;65.37;100483.84;5086616;28;20086;-82
2022/07/18 08:50:45;;;;;;;6.10;1.90;;;;;;;22.93;64.50;100466.97;5080174;28;20055;-83
2022/07/18 08:53:13;;;;;;;7.88;2.10;;;;;;;22.99;64.51;100477.91;5076765;28;20495;-82
2022/07/18 08:55:39;;;;;;;8.00;2.00;;;;;;;23.05;64.36;100467.06;5084608;28;20059;-81
2022/07/18 08:58:04;;;;;;;9.38;2.38;;;;;;;23.15;64.33;100461.13;5081164;28;20128;-83
2022/07/18 09:00:30;;;;;;;10.85;1.90;;;;;;;23.26;64.57;100459.53;5052292;28;20567;-82
2022/07/18 09:02:58;;;;;;;7.78;2.58;;;;;;;23.35;64.35;100462.69;5027876;28;20045;-82
2022/07/18 09:05:24;;;;;;;5.15;2.10;;;;;;;23.38;63.43;100464.13;5028334;28;20041;-82
2022/07/18 09:07:50;;;;;;;11.18;2.15;;;;;;;23.43;63.41;100458.88;5028842;28;20421;-81
2022/07/18 09:10:16;;;;;;;8.68;1.90;;;;;;;23.52;63.30;100456.69;5024115;28;20061;-82
2022/07/18 09:12:56;;;;;;;7.45;2.47;;;;;;;23.61;63.26;100458.00;5028926;28;20116;-82
2022/07/18 09:15:22;;;;;;;6.90;1.80;;;;;;;23.73;62.89;100454.50;5020109;28;20079;-81
2022/07/18 09:17:50;;;;;;;4.93;1.83;;;;;;;23.81;62.45;100451.44;5028669;28;20095;-81
2022/07/18 09:20:16;;;;;;;7.50;2.30;;;;;;;23.84;61.99;100442.88;5027321;28;20032;-82
2022/07/18 09:22:45;;;;;;;5.72;1.58;;;;;;;23.96;61.95;100442.06;5025106;28;20513;-82
2022/07/18 09:25:14;;;;;;;8.88;1.90;;;;;;;24.01;61.62;100439.50;5025163;28;20084;-82
2022/07/18 09:27:46;;;;;;;4.47;1.75;;;;;;;24.14;61.23;100444.66;5027157;28;20075;-82
2022/07/18 09:30:35;;;;;;;4.18;1.80;;;;;;;24.20;61.34;100442.09;5028768;28;20045;-82
2022/07/18 09:33:04;;;;;;;5.90;2.25;;;;;;;24.30;61.38;100439.66;5028811;28;20042;-82
2022/07/18 09:35:33;;;;;;;4.60;1.85;;;;;;;24.38;61.21;100428.44;5029906;28;20044;-82
2022/07/18 09:38:02;;;;;;;6.07;1.95;;;;;;;24.50;60.67;100433.00;5032808;28;20034;-82
2022/07/18 09:40:31;;;;;;;3.85;1.73;;;;;;;24.58;61.00;100432.66;5029728;28;20033;-83
2022/07/18 09:43:00;;;;;;;7.50;2.28;;;;;;;24.65;60.71;100425.22;5031628;28;20037;-83
2022/07/18 09:45:30;;;;;;;3.25;1.67;;;;;;;24.71;60.65;100425.31;5028666;28;20029;-82
2022/07/18 09:48:27;;;;;;;9.00;1.83;;;;;;;24.80;60.15;100420.38;5031215;28;20026;-82
2022/07/18 09:51:07;;;;;;;9.00;2.30;;;;;;;24.81;59.59;100422.84;5030563;28;20045;-82
2022/07/18 09:53:36;;;;;;;4.72;1.70;;;;;;;24.86;60.12;100422.13;5030348;28;20033;-82
2022/07/18 09:56:06;;;;;;;6.40;1.75;;;;;;;24.92;59.98;100426.59;5031491;28;20135;-82
2022/07/18 09:58:34;;;;;;;6.63;2.03;;;;;;;24.98;59.52;100420.22;5013614;28;20029;-83
2022/07/18 10:01:02;;;;;;;7.07;1.90;;;;;;;25.04;59.62;100414.91;5030175;28;20525;-82
2022/07/18 10:03:28;;;;;;;5.15;1.75;;;;;;;25.07;59.23;100412.53;5060657;28;20065;-81
2022/07/18 10:05:56;;;;;;;6.50;2.40;;;;;;;25.13;59.15;100400.72;5008825;28;20102;-82
2022/07/18 10:08:24;;;;;;;6.32;1.90;;;;;;;25.16;58.95;100391.31;5027592;28;20121;-82
2022/07/18 10:10:52;;;;;;;8.07;1.90;;;;;;;25.17;58.11;100392.97;5028968;28;20036;-82
2022/07/18 10:13:20;;;;;;;2.83;1.75;;;;;;;25.20;57.88;100391.63;5021074;28;20029;-82
2022/07/18 10:15:47;;;;;;;4.85;2.08;;;;;;;25.27;57.65;100385.03;5028767;28;20527;-81
2022/07/18 10:18:19;;;;;;;7.80;2.38;;;;;;;25.35;56.95;100388.38;5032877;28;20060;-82
2022/07/18 10:20:46;;;;;;;5.00;1.98;;;;;;;25.42;56.87;100383.63;5047615;28;20114;-81
2022/07/18 10:23:40;;;;;;;8.88;1.98;;;;;;;25.47;56.47;100381.00;5018067;28;20548;-82
2022/07/18 10:26:28;;;;;;;3.60;1.83;;;;;;;25.60;56.50;100390.69;5037666;28;20063;-82
2022/07/18 10:28:58;;;;;;;5.03;1.70;;;;;;;25.71;56.72;100386.28;5058426;28;20064;-82
2022/07/18 10:31:28;;;;;;;2.90;1.73;;;;;;;25.79;56.53;100382.31;5049555;28;20549;-82
2022/07/18 10:34:09;;;;;;;6.55;1.70;;;;;;;25.85;56.02;100388.66;5048818;28;20513;-82
2022/07/18 10:36:36;;;;;;;3.90;1.77;;;;;;;25.91;56.08;100382.25;5044548;28;20041;-82
2022/07/18 10:39:05;;;;;;;4.22;1.60;;;;;;;25.95;55.65;100391.50;5048988;28;20033;-82
2022/07/18 10:41:32;;;;;;;5.18;1.40;;;;;;;25.97;54.95;100386.66;5050774;28;20089;-83
2022/07/18 10:43:58;;;;;;;7.22;1.50;;;;;;;26.02;54.25;100385.91;5052522;28;20025;-83
2022/07/18 10:46:24;;;;;;;3.95;2.00;;;;;;;26.10;54.30;100385.44;5031618;28;20025;-82
2022/07/18 10:48:52;;;;;;;6.28;2.08;;;;;;;26.21;54.49;100383.72;5050464;28;20037;-82
2022/07/18 10:51:19;;;;;;;7.38;1.92;;;;;;;26.25;54.24;100376.72;5045598;28;20063;-82
2022/07/18 10:53:57;;;;;;;6.82;1.50;;;;;;;26.35;53.50;100391.50;5032143;28;20071;-83
2022/07/18 10:56:23;;;;;;;10.52;2.20;;;;;;;26.42;53.47;100386.72;5066993;28;20044;-82
2022/07/18 10:58:49;;;;;;;10.57;2.25;;;;;;;26.31;53.45;100379.50;5047096;28;20024;-82
2022/07/18 11:01:18;;;;;;;11.30;2.22;;;;;;;26.33;53.58;100383.63;5049097;28;20118;-82
2022/07/18 11:03:44;;;;;;;3.45;1.40;;;;;;;26.46;54.08;100376.16;5048516;28;20481;-82
2022/07/18 11:06:10;;;;;;;4.18;1.58;;;;;;;26.62;54.23;100377.16;5050731;28;20095;-82
2022/07/18 11:08:37;;;;;;;3.95;1.70;;;;;;;26.75;54.54;100376.78;5050155;28;20083;-83
2022/07/18 11:11:04;;;;;;;4.97;2.00;;;;;;;26.65;54.01;100383.97;5057103;28;20107;-82
2022/07/18 11:13:49;;;;;;;5.93;2.15;;;;;;;26.53;53.00;100367.84;5049772;28;20484;-82
2022/07/18 11:16:22;;;;;;;5.80;1.67;;;;;;;26.46;53.45;100362.63;5083278;28;20037;-82
2022/07/18 11:19:08;;;;;;;6.50;2.00;;;;;;;26.51;53.57;100365.41;5048872;28;20115;-82
2022/07/18 11:21:35;;;;;;;8.85;1.75;;;;;;;26.61;53.22;100367.41;5032896;28;20051;-82
2022/07/18 11:24:03;;;;;;;6.03;1.52;;;;;;;26.73;53.37;100361.81;5069514;28;20063;-83